sensor_id;sensor_type;location;lat;lon;timestamp;temperature;humidity
28725;DHT22;43472;48.980;9.646;2023-12-28T00:00:46;4.10;99.90
28725;DHT22;43472;48.980;9.646;2023-12-28T00:05:49;3.80;99.90
28725;DHT22;43472;48.980;9.646;2023-12-28T00:10:51;4.10;99.90
28725;DHT22;43472;48.980;9.646;2023-12-28T00:15:53;4.40;99.90
28725;DHT22;43472;48.980;9.646;2023-12-28T00:20:55;4.10;99.90
28725;DHT22;43472;48.980;9.646;2023-12-28T00:25:56;4.10;99.90
28725;DHT22;43472;48.980;9.646;2023-12-28T00:30:58;4.30;99.90
28725;DHT22;43472;48.980;9.646;2023-12-28T00:36:00;4.20;99.90
28725;DHT22;43472;48.980;9.646;2023-12-28T00:41:02;3.70;99.90
28725;DHT22;43472;48.980;9.646;2023-12-28T00:46:04;4.00;99.90
28725;DHT22;43472;48.980;9.646;2023-12-28T00:51:05;4.00;99.90
28725;DHT22;43472;48.980;9.646;2023-12-28T00:56:07;4.10;99.90
28725;DHT22;43472;48.980;9.646;2023-12-28T01:01:10;4.20;99.90
28725;DHT22;43472;48.980;9.646;2023-12-28T01:06:12;4.00;99.90
28725;DHT22;43472;48.980;9.646;2023-12-28T01:11:14;4.10;99.90
28725;DHT22;43472;48.980;9.646;2023-12-28T01:16:16;4.20;99.90
28725;DHT22;43472;48.980;9.646;2023-12-28T01:21:18;4.10;99.90
28725;DHT22;43472;48.980;9.646;2023-12-28T01:26:20;4.00;99.90
28725;DHT22;43472;48.980;9.646;2023-12-28T01:31:22;4.00;99.90
28725;DHT22;43472;48.980;9.646;2023-12-28T01:36:24;4.10;99.90
28725;DHT22;43472;48.980;9.646;2023-12-28T01:41:27;4.00;99.90
28725;DHT22;43472;48.980;9.646;2023-12-28T01:46:29;4.00;99.90
28725;DHT22;43472;48.980;9.646;2023-12-28T01:51:33;4.20;99.90
28725;DHT22;43472;48.980;9.646;2023-12-28T01:56:35;4.40;99.90
28725;DHT22;43472;48.980;9.646;2023-12-28T02:01:37;4.60;99.90
28725;DHT22;43472;48.980;9.646;2023-12-28T02:06:39;4.50;99.90
28725;DHT22;43472;48.980;9.646;2023-12-28T02:11:41;4.60;99.90
28725;DHT22;43472;48.980;9.646;2023-12-28T02:17:14;4.80;99.90
28725;DHT22;43472;48.980;9.646;2023-12-28T02:22:17;4.60;99.90
28725;DHT22;43472;48.980;9.646;2023-12-28T02:27:20;4.40;99.90
28725;DHT22;43472;48.980;9.646;2023-12-28T02:32:28;4.40;99.90
28725;DHT22;43472;48.980;9.646;2023-12-28T02:37:34;4.20;99.90
28725;DHT22;43472;48.980;9.646;2023-12-28T02:42:36;4.30;99.90
28725;DHT22;43472;48.980;9.646;2023-12-28T02:47:37;4.50;99.90
28725;DHT22;43472;48.980;9.646;2023-12-28T02:52:39;4.40;99.90
28725;DHT22;43472;48.980;9.646;2023-12-28T02:57:42;4.40;99.90
28725;DHT22;43472;48.980;9.646;2023-12-28T03:02:44;4.40;99.90
28725;DHT22;43472;48.980;9.646;2023-12-28T03:07:46;4.20;99.90
28725;DHT22;43472;48.980;9.646;2023-12-28T03:12:48;4.10;99.90
28725;DHT22;43472;48.980;9.646;2023-12-28T03:17:50;4.10;99.90
28725;DHT22;43472;48.980;9.646;2023-12-28T03:22:52;4.30;99.90
28725;DHT22;43472;48.980;9.646;2023-12-28T03:27:54;4.50;99.90
28725;DHT22;43472;48.980;9.646;2023-12-28T03:32:56;4.60;99.90
28725;DHT22;43472;48.980;9.646;2023-12-28T03:37:58;4.70;99.90
28725;DHT22;43472;48.980;9.646;2023-12-28T03:43:02;4.60;99.90
28725;DHT22;43472;48.980;9.646;2023-12-28T03:48:04;4.80;99.90
28725;DHT22;43472;48.980;9.646;2023-12-28T03:53:06;5.10;99.90
28725;DHT22;43472;48.980;9.646;2023-12-28T03:58:08;5.30;99.90
28725;DHT22;43472;48.980;9.646;2023-12-28T04:03:10;5.40;99.90
28725;DHT22;43472;48.980;9.646;2023-12-28T04:08:12;5.60;99.90
28725;DHT22;43472;48.980;9.646;2023-12-28T04:13:14;5.40;99.90
28725;DHT22;43472;48.980;9.646;2023-12-28T04:18:16;5.50;99.90
28725;DHT22;43472;48.980;9.646;2023-12-28T04:23:18;5.80;99.90
28725;DHT22;43472;48.980;9.646;2023-12-28T04:28:20;6.00;99.90
28725;DHT22;43472;48.980;9.646;2023-12-28T04:33:21;6.00;99.90
28725;DHT22;43472;48.980;9.646;2023-12-28T04:38:23;6.20;99.90
28725;DHT22;43472;48.980;9.646;2023-12-28T04:43:26;6.80;99.90
28725;DHT22;43472;48.980;9.646;2023-12-28T04:48:27;7.10;99.90
28725;DHT22;43472;48.980;9.646;2023-12-28T04:53:30;7.70;99.90
28725;DHT22;43472;48.980;9.646;2023-12-28T04:58:31;8.00;99.90
28725;DHT22;43472;48.980;9.646;2023-12-28T05:03:33;8.10;99.90
28725;DHT22;43472;48.980;9.646;2023-12-28T05:08:35;8.40;99.90
28725;DHT22;43472;48.980;9.646;2023-12-28T05:13:37;8.80;99.90
28725;DHT22;43472;48.980;9.646;2023-12-28T05:18:39;9.10;99.90
28725;DHT22;43472;48.980;9.646;2023-12-28T05:23:41;9.20;99.90
28725;DHT22;43472;48.980;9.646;2023-12-28T05:28:43;9.10;99.90
28725;DHT22;43472;48.980;9.646;2023-12-28T05:33:44;9.50;99.90
28725;DHT22;43472;48.980;9.646;2023-12-28T05:38:46;9.40;99.90
28725;DHT22;43472;48.980;9.646;2023-12-28T05:43:48;9.50;99.90
28725;DHT22;43472;48.980;9.646;2023-12-28T05:48:50;9.50;99.90
28725;DHT22;43472;48.980;9.646;2023-12-28T05:53:52;9.70;99.90
28725;DHT22;43472;48.980;9.646;2023-12-28T05:58:53;9.60;99.90
28725;DHT22;43472;48.980;9.646;2023-12-28T06:03:55;9.70;99.90
28725;DHT22;43472;48.980;9.646;2023-12-28T06:08:57;9.70;99.90
28725;DHT22;43472;48.980;9.646;2023-12-28T06:14:00;9.90;99.90
28725;DHT22;43472;48.980;9.646;2023-12-28T06:19:01;9.90;99.90
28725;DHT22;43472;48.980;9.646;2023-12-28T06:24:04;10.00;99.90
28725;DHT22;43472;48.980;9.646;2023-12-28T06:29:06;9.90;99.90
28725;DHT22;43472;48.980;9.646;2023-12-28T06:34:08;9.10;99.90
28725;DHT22;43472;48.980;9.646;2023-12-28T06:39:10;8.80;99.90
28725;DHT22;43472;48.980;9.646;2023-12-28T06:44:12;8.90;99.90
28725;DHT22;43472;48.980;9.646;2023-12-28T06:49:15;9.60;99.90
28725;DHT22;43472;48.980;9.646;2023-12-28T06:54:17;9.10;99.90
28725;DHT22;43472;48.980;9.646;2023-12-28T06:59:19;8.90;99.90
28725;DHT22;43472;48.980;9.646;2023-12-28T07:04:21;8.80;99.90
28725;DHT22;43472;48.980;9.646;2023-12-28T07:09:23;8.70;99.90
28725;DHT22;43472;48.980;9.646;2023-12-28T07:14:25;8.80;99.90
28725;DHT22;43472;48.980;9.646;2023-12-28T07:19:27;8.90;99.90
28725;DHT22;43472;48.980;9.646;2023-12-28T07:24:29;9.00;99.90
28725;DHT22;43472;48.980;9.646;2023-12-28T07:29:31;8.80;99.90
28725;DHT22;43472;48.980;9.646;2023-12-28T07:34:33;8.80;99.90
28725;DHT22;43472;48.980;9.646;2023-12-28T07:39:35;8.70;99.90
28725;DHT22;43472;48.980;9.646;2023-12-28T07:44:37;8.40;99.90
28725;DHT22;43472;48.980;9.646;2023-12-28T07:49:38;8.40;99.90
28725;DHT22;43472;48.980;9.646;2023-12-28T07:54:40;8.50;99.90
28725;DHT22;43472;48.980;9.646;2023-12-28T07:59:42;8.60;99.90
28725;DHT22;43472;48.980;9.646;2023-12-28T08:04:45;8.60;99.90
28725;DHT22;43472;48.980;9.646;2023-12-28T08:09:47;8.60;99.90
28725;DHT22;43472;48.980;9.646;2023-12-28T08:14:49;8.50;99.90
28725;DHT22;43472;48.980;9.646;2023-12-28T08:19:51;8.60;99.90
28725;DHT22;43472;48.980;9.646;2023-12-28T08:24:53;8.20;99.90
28725;DHT22;43472;48.980;9.646;2023-12-28T08:29:55;8.40;99.90
28725;DHT22;43472;48.980;9.646;2023-12-28T08:34:57;8.50;99.90
28725;DHT22;43472;48.980;9.646;2023-12-28T08:39:59;8.70;99.90
28725;DHT22;43472;48.980;9.646;2023-12-28T08:45:00;8.90;99.90
28725;DHT22;43472;48.980;9.646;2023-12-28T08:50:03;8.90;99.90
28725;DHT22;43472;48.980;9.646;2023-12-28T08:55:05;8.80;99.90
28725;DHT22;43472;48.980;9.646;2023-12-28T09:00:08;8.80;99.90
28725;DHT22;43472;48.980;9.646;2023-12-28T09:05:11;8.70;99.90
28725;DHT22;43472;48.980;9.646;2023-12-28T09:10:12;8.80;99.90
28725;DHT22;43472;48.980;9.646;2023-12-28T09:15:14;8.90;99.90
28725;DHT22;43472;48.980;9.646;2023-12-28T09:20:17;8.90;99.90
28725;DHT22;43472;48.980;9.646;2023-12-28T09:25:20;9.00;99.90
28725;DHT22;43472;48.980;9.646;2023-12-28T09:30:21;9.10;99.90
28725;DHT22;43472;48.980;9.646;2023-12-28T09:35:23;9.00;99.90
28725;DHT22;43472;48.980;9.646;2023-12-28T09:40:26;9.00;99.90
28725;DHT22;43472;48.980;9.646;2023-12-28T09:45:28;8.90;99.90
28725;DHT22;43472;48.980;9.646;2023-12-28T09:50:30;9.00;99.90
28725;DHT22;43472;48.980;9.646;2023-12-28T09:55:32;9.10;99.90
28725;DHT22;43472;48.980;9.646;2023-12-28T10:00:34;9.30;99.90
28725;DHT22;43472;48.980;9.646;2023-12-28T10:05:36;9.30;99.90
28725;DHT22;43472;48.980;9.646;2023-12-28T10:10:38;9.20;99.90
28725;DHT22;43472;48.980;9.646;2023-12-28T10:15:40;9.40;99.90
28725;DHT22;43472;48.980;9.646;2023-12-28T10:20:42;9.50;99.90
28725;DHT22;43472;48.980;9.646;2023-12-28T10:25:44;9.50;99.90
28725;DHT22;43472;48.980;9.646;2023-12-28T10:30:47;9.70;99.90
28725;DHT22;43472;48.980;9.646;2023-12-28T10:35:50;9.90;99.90
28725;DHT22;43472;48.980;9.646;2023-12-28T10:40:53;9.80;99.90
28725;DHT22;43472;48.980;9.646;2023-12-28T10:45:55;9.90;99.90
28725;DHT22;43472;48.980;9.646;2023-12-28T10:51:00;9.90;99.90
28725;DHT22;43472;48.980;9.646;2023-12-28T11:01:31;9.70;99.90
28725;DHT22;43472;48.980;9.646;2023-12-28T11:06:34;9.80;99.90
28725;DHT22;43472;48.980;9.646;2023-12-28T11:11:37;10.00;99.90
28725;DHT22;43472;48.980;9.646;2023-12-28T11:16:40;9.90;99.90
28725;DHT22;43472;48.980;9.646;2023-12-28T11:21:43;10.00;99.90
28725;DHT22;43472;48.980;9.646;2023-12-28T11:26:55;9.90;99.90
28725;DHT22;43472;48.980;9.646;2023-12-28T11:31:57;10.20;99.90
28725;DHT22;43472;48.980;9.646;2023-12-28T11:37:13;10.30;99.90
28725;DHT22;43472;48.980;9.646;2023-12-28T11:42:21;10.20;99.90
28725;DHT22;43472;48.980;9.646;2023-12-28T11:47:26;10.10;99.90
28725;DHT22;43472;48.980;9.646;2023-12-28T11:52:31;10.20;99.90
28725;DHT22;43472;48.980;9.646;2023-12-28T11:57:33;10.20;99.90
28725;DHT22;43472;48.980;9.646;2023-12-28T12:02:35;10.30;99.90
28725;DHT22;43472;48.980;9.646;2023-12-28T12:07:37;10.40;99.90
28725;DHT22;43472;48.980;9.646;2023-12-28T12:12:39;10.40;99.90
28725;DHT22;43472;48.980;9.646;2023-12-28T12:17:40;10.50;99.90
28725;DHT22;43472;48.980;9.646;2023-12-28T12:22:42;11.00;99.90
28725;DHT22;43472;48.980;9.646;2023-12-28T12:27:44;10.50;99.90
28725;DHT22;43472;48.980;9.646;2023-12-28T12:32:47;10.70;99.90
28725;DHT22;43472;48.980;9.646;2023-12-28T12:37:51;10.80;99.90
28725;DHT22;43472;48.980;9.646;2023-12-28T12:42:54;10.90;99.90
28725;DHT22;43472;48.980;9.646;2023-12-28T12:47:57;10.80;99.90
28725;DHT22;43472;48.980;9.646;2023-12-28T12:53:00;10.80;99.90
28725;DHT22;43472;48.980;9.646;2023-12-28T12:58:02;10.90;99.90
28725;DHT22;43472;48.980;9.646;2023-12-28T13:03:08;11.00;99.90
28725;DHT22;43472;48.980;9.646;2023-12-28T13:08:11;11.00;99.90
28725;DHT22;43472;48.980;9.646;2023-12-28T13:13:12;11.00;99.90
28725;DHT22;43472;48.980;9.646;2023-12-28T13:18:15;10.90;99.90
28725;DHT22;43472;48.980;9.646;2023-12-28T13:23:17;11.00;99.90
28725;DHT22;43472;48.980;9.646;2023-12-28T13:28:18;11.00;99.90
28725;DHT22;43472;48.980;9.646;2023-12-28T13:33:20;11.40;99.90
28725;DHT22;43472;48.980;9.646;2023-12-28T13:38:22;10.90;99.90
28725;DHT22;43472;48.980;9.646;2023-12-28T13:43:24;10.90;99.90
28725;DHT22;43472;48.980;9.646;2023-12-28T13:48:26;11.00;99.90
28725;DHT22;43472;48.980;9.646;2023-12-28T13:53:28;10.90;99.90
28725;DHT22;43472;48.980;9.646;2023-12-28T13:58:30;11.00;99.90
28725;DHT22;43472;48.980;9.646;2023-12-28T14:03:32;10.80;99.90
28725;DHT22;43472;48.980;9.646;2023-12-28T14:08:34;10.90;99.90
28725;DHT22;43472;48.980;9.646;2023-12-28T14:13:36;10.90;99.90
28725;DHT22;43472;48.980;9.646;2023-12-28T14:18:38;10.80;99.90
28725;DHT22;43472;48.980;9.646;2023-12-28T14:23:43;10.80;99.90
28725;DHT22;43472;48.980;9.646;2023-12-28T14:28:45;10.70;99.90
28725;DHT22;43472;48.980;9.646;2023-12-28T14:33:47;10.50;99.90
28725;DHT22;43472;48.980;9.646;2023-12-28T14:38:49;10.40;99.90
28725;DHT22;43472;48.980;9.646;2023-12-28T14:43:52;10.40;99.90
28725;DHT22;43472;48.980;9.646;2023-12-28T14:48:54;10.40;99.90
28725;DHT22;43472;48.980;9.646;2023-12-28T14:53:57;10.40;99.90
28725;DHT22;43472;48.980;9.646;2023-12-28T14:58:58;10.40;99.90
28725;DHT22;43472;48.980;9.646;2023-12-28T15:04:00;10.20;99.90
28725;DHT22;43472;48.980;9.646;2023-12-28T15:09:02;10.20;99.90
28725;DHT22;43472;48.980;9.646;2023-12-28T15:14:04;10.30;99.90
28725;DHT22;43472;48.980;9.646;2023-12-28T15:19:09;10.20;99.90
28725;DHT22;43472;48.980;9.646;2023-12-28T15:24:12;10.20;99.90
28725;DHT22;43472;48.980;9.646;2023-12-28T15:29:14;10.10;99.90
28725;DHT22;43472;48.980;9.646;2023-12-28T15:34:17;9.90;99.90
28725;DHT22;43472;48.980;9.646;2023-12-28T15:39:19;9.90;99.90
28725;DHT22;43472;48.980;9.646;2023-12-28T15:44:21;9.90;99.90
28725;DHT22;43472;48.980;9.646;2023-12-28T15:49:23;10.00;99.90
28725;DHT22;43472;48.980;9.646;2023-12-28T15:54:25;10.00;99.90
28725;DHT22;43472;48.980;9.646;2023-12-28T15:59:30;10.00;99.90
28725;DHT22;43472;48.980;9.646;2023-12-28T16:04:32;10.00;99.90
28725;DHT22;43472;48.980;9.646;2023-12-28T16:09:33;10.00;99.90
28725;DHT22;43472;48.980;9.646;2023-12-28T16:14:36;10.00;99.90
28725;DHT22;43472;48.980;9.646;2023-12-28T16:19:38;10.00;99.90
28725;DHT22;43472;48.980;9.646;2023-12-28T16:24:40;10.00;99.90
28725;DHT22;43472;48.980;9.646;2023-12-28T16:29:42;10.00;99.90
28725;DHT22;43472;48.980;9.646;2023-12-28T16:34:44;9.80;99.90
28725;DHT22;43472;48.980;9.646;2023-12-28T16:39:46;9.80;99.90
28725;DHT22;43472;48.980;9.646;2023-12-28T16:44:48;9.90;99.90
28725;DHT22;43472;48.980;9.646;2023-12-28T16:49:50;9.80;99.90
28725;DHT22;43472;48.980;9.646;2023-12-28T16:54:52;9.80;99.90
28725;DHT22;43472;48.980;9.646;2023-12-28T16:59:54;9.90;99.90
28725;DHT22;43472;48.980;9.646;2023-12-28T17:05:11;9.90;99.90
28725;DHT22;43472;48.980;9.646;2023-12-28T17:10:13;10.10;99.90
28725;DHT22;43472;48.980;9.646;2023-12-28T17:15:17;10.10;99.90
28725;DHT22;43472;48.980;9.646;2023-12-28T17:20:19;10.20;99.90
28725;DHT22;43472;48.980;9.646;2023-12-28T17:25:39;10.20;99.90
28725;DHT22;43472;48.980;9.646;2023-12-28T17:30:44;10.30;99.90
28725;DHT22;43472;48.980;9.646;2023-12-28T17:35:46;10.20;99.90
28725;DHT22;43472;48.980;9.646;2023-12-28T17:40:48;10.10;99.90
28725;DHT22;43472;48.980;9.646;2023-12-28T17:51:16;10.10;99.90
28725;DHT22;43472;48.980;9.646;2023-12-28T17:56:18;10.10;99.90
28725;DHT22;43472;48.980;9.646;2023-12-28T18:01:20;10.30;99.90
28725;DHT22;43472;48.980;9.646;2023-12-28T18:06:22;10.30;99.90
28725;DHT22;43472;48.980;9.646;2023-12-28T18:11:26;10.30;99.90
28725;DHT22;43472;48.980;9.646;2023-12-28T18:16:28;10.40;99.90
28725;DHT22;43472;48.980;9.646;2023-12-28T18:21:30;10.40;99.90
28725;DHT22;43472;48.980;9.646;2023-12-28T18:26:32;10.20;99.90
28725;DHT22;43472;48.980;9.646;2023-12-28T18:31:33;10.40;99.90
28725;DHT22;43472;48.980;9.646;2023-12-28T18:36:35;10.40;99.90
28725;DHT22;43472;48.980;9.646;2023-12-28T18:41:37;10.30;99.90
28725;DHT22;43472;48.980;9.646;2023-12-28T18:46:39;10.40;99.90
28725;DHT22;43472;48.980;9.646;2023-12-28T18:51:41;10.40;99.90
28725;DHT22;43472;48.980;9.646;2023-12-28T18:56:43;10.40;99.90
28725;DHT22;43472;48.980;9.646;2023-12-28T19:01:45;10.30;99.90
28725;DHT22;43472;48.980;9.646;2023-12-28T19:06:47;10.40;99.90
28725;DHT22;43472;48.980;9.646;2023-12-28T19:11:48;10.30;99.90
28725;DHT22;43472;48.980;9.646;2023-12-28T19:16:50;10.40;99.90
28725;DHT22;43472;48.980;9.646;2023-12-28T19:21:52;10.40;99.90
28725;DHT22;43472;48.980;9.646;2023-12-28T19:26:54;10.40;99.90
28725;DHT22;43472;48.980;9.646;2023-12-28T19:31:56;10.50;99.90
28725;DHT22;43472;48.980;9.646;2023-12-28T19:36:58;10.50;99.90
28725;DHT22;43472;48.980;9.646;2023-12-28T19:42:00;10.30;99.90
28725;DHT22;43472;48.980;9.646;2023-12-28T19:47:02;10.30;99.90
28725;DHT22;43472;48.980;9.646;2023-12-28T19:52:04;10.30;99.90
28725;DHT22;43472;48.980;9.646;2023-12-28T19:57:06;10.40;99.90
28725;DHT22;43472;48.980;9.646;2023-12-28T20:02:07;10.40;99.90
28725;DHT22;43472;48.980;9.646;2023-12-28T20:07:11;10.40;99.90
28725;DHT22;43472;48.980;9.646;2023-12-28T20:12:13;10.40;99.90
28725;DHT22;43472;48.980;9.646;2023-12-28T20:17:15;10.30;99.90
28725;DHT22;43472;48.980;9.646;2023-12-28T20:22:17;10.40;99.90
28725;DHT22;43472;48.980;9.646;2023-12-28T20:27:18;10.30;99.90
28725;DHT22;43472;48.980;9.646;2023-12-28T20:32:20;10.30;99.90
28725;DHT22;43472;48.980;9.646;2023-12-28T20:37:22;10.30;99.90
28725;DHT22;43472;48.980;9.646;2023-12-28T20:42:24;10.20;99.90
28725;DHT22;43472;48.980;9.646;2023-12-28T20:47:27;10.40;99.90
28725;DHT22;43472;48.980;9.646;2023-12-28T20:52:29;10.30;99.90
28725;DHT22;43472;48.980;9.646;2023-12-28T20:57:31;10.30;99.90
28725;DHT22;43472;48.980;9.646;2023-12-28T21:02:33;10.30;99.90
28725;DHT22;43472;48.980;9.646;2023-12-28T21:07:35;10.40;99.90
28725;DHT22;43472;48.980;9.646;2023-12-28T21:12:37;10.50;99.90
28725;DHT22;43472;48.980;9.646;2023-12-28T21:17:39;10.40;99.90
28725;DHT22;43472;48.980;9.646;2023-12-28T21:22:42;10.30;99.90
28725;DHT22;43472;48.980;9.646;2023-12-28T21:27:44;10.30;99.90
28725;DHT22;43472;48.980;9.646;2023-12-28T21:32:46;10.40;99.90
28725;DHT22;43472;48.980;9.646;2023-12-28T21:37:47;10.30;99.90
28725;DHT22;43472;48.980;9.646;2023-12-28T21:42:49;10.40;99.90
28725;DHT22;43472;48.980;9.646;2023-12-28T21:47:55;10.30;99.90
28725;DHT22;43472;48.980;9.646;2023-12-28T21:52:58;10.30;99.90
28725;DHT22;43472;48.980;9.646;2023-12-28T21:58:00;10.50;99.90
28725;DHT22;43472;48.980;9.646;2023-12-28T22:03:03;10.40;99.90
28725;DHT22;43472;48.980;9.646;2023-12-28T22:08:05;10.30;99.90
28725;DHT22;43472;48.980;9.646;2023-12-28T22:13:07;10.30;99.90
28725;DHT22;43472;48.980;9.646;2023-12-28T22:18:09;10.30;99.90
28725;DHT22;43472;48.980;9.646;2023-12-28T22:23:11;10.30;99.90
28725;DHT22;43472;48.980;9.646;2023-12-28T22:28:13;10.40;99.90
28725;DHT22;43472;48.980;9.646;2023-12-28T22:33:15;10.40;99.90
28725;DHT22;43472;48.980;9.646;2023-12-28T22:38:17;10.20;99.90
28725;DHT22;43472;48.980;9.646;2023-12-28T22:43:19;10.30;99.90
28725;DHT22;43472;48.980;9.646;2023-12-28T22:48:22;10.30;99.90
28725;DHT22;43472;48.980;9.646;2023-12-28T22:53:24;10.20;99.90
28725;DHT22;43472;48.980;9.646;2023-12-28T22:58:26;10.10;99.90
28725;DHT22;43472;48.980;9.646;2023-12-28T23:03:28;10.20;99.90
28725;DHT22;43472;48.980;9.646;2023-12-28T23:08:30;10.30;99.90
28725;DHT22;43472;48.980;9.646;2023-12-28T23:13:32;10.20;99.90
28725;DHT22;43472;48.980;9.646;2023-12-28T23:18:33;11.00;99.90
28725;DHT22;43472;48.980;9.646;2023-12-28T23:23:35;10.30;99.90
28725;DHT22;43472;48.980;9.646;2023-12-28T23:28:37;10.20;99.90
28725;DHT22;43472;48.980;9.646;2023-12-28T23:33:39;10.40;99.90
28725;DHT22;43472;48.980;9.646;2023-12-28T23:38:41;10.40;99.90
28725;DHT22;43472;48.980;9.646;2023-12-28T23:43:43;10.60;99.90
28725;DHT22;43472;48.980;9.646;2023-12-28T23:48:45;10.70;99.90
28725;DHT22;43472;48.980;9.646;2023-12-28T23:53:48;10.50;99.90
28725;DHT22;43472;48.980;9.646;2023-12-28T23:58:50;10.50;99.90
